sensor_id;sensor_type;location;lat;lon;timestamp;P1;durP1;ratioP1;P2;durP2;ratioP2
4810;SDS011;2419;51.276;6.472;2023-04-12T00:01:52;1.00;;;0.90;;
4810;SDS011;2419;51.276;6.472;2023-04-12T00:04:20;10.80;;;2.67;;
4810;SDS011;2419;51.276;6.472;2023-04-12T00:06:55;3.13;;;1.20;;
4810;SDS011;2419;51.276;6.472;2023-04-12T00:09:27;3.10;;;1.50;;
4810;SDS011;2419;51.276;6.472;2023-04-12T00:11:56;3.17;;;1.00;;
4810;SDS011;2419;51.276;6.472;2023-04-12T00:14:24;3.90;;;1.40;;
4810;SDS011;2419;51.276;6.472;2023-04-12T00:16:52;1.23;;;1.13;;
4810;SDS011;2419;51.276;6.472;2023-04-12T00:19:20;2.17;;;1.23;;
4810;SDS011;2419;51.276;6.472;2023-04-12T00:21:51;4.00;;;1.33;;
4810;SDS011;2419;51.276;6.472;2023-04-12T00:24:19;1.30;;;1.17;;
4810;SDS011;2419;51.276;6.472;2023-04-12T00:26:48;2.97;;;1.10;;
4810;SDS011;2419;51.276;6.472;2023-04-12T00:29:16;7.63;;;1.37;;
4810;SDS011;2419;51.276;6.472;2023-04-12T00:31:44;2.00;;;1.33;;
4810;SDS011;2419;51.276;6.472;2023-04-12T00:34:12;0.90;;;0.90;;
4810;SDS011;2419;51.276;6.472;2023-04-12T00:36:41;7.97;;;1.40;;
4810;SDS011;2419;51.276;6.472;2023-04-12T00:39:09;3.50;;;1.23;;
4810;SDS011;2419;51.276;6.472;2023-04-12T00:41:37;2.53;;;1.07;;
4810;SDS011;2419;51.276;6.472;2023-04-12T00:44:06;2.93;;;1.50;;
4810;SDS011;2419;51.276;6.472;2023-04-12T00:46:35;2.60;;;1.30;;
4810;SDS011;2419;51.276;6.472;2023-04-12T00:49:05;4.27;;;1.40;;
4810;SDS011;2419;51.276;6.472;2023-04-12T00:51:33;3.53;;;1.03;;
4810;SDS011;2419;51.276;6.472;2023-04-12T00:54:03;2.47;;;1.20;;
4810;SDS011;2419;51.276;6.472;2023-04-12T00:56:32;4.13;;;1.50;;
4810;SDS011;2419;51.276;6.472;2023-04-12T00:59:00;3.00;;;1.40;;
4810;SDS011;2419;51.276;6.472;2023-04-12T01:01:30;3.10;;;1.87;;
4810;SDS011;2419;51.276;6.472;2023-04-12T01:03:58;9.17;;;1.23;;
4810;SDS011;2419;51.276;6.472;2023-04-12T01:06:37;2.20;;;1.00;;
4810;SDS011;2419;51.276;6.472;2023-04-12T01:09:16;4.13;;;1.30;;
4810;SDS011;2419;51.276;6.472;2023-04-12T01:12:06;3.33;;;1.20;;
4810;SDS011;2419;51.276;6.472;2023-04-12T01:14:42;2.73;;;1.00;;
4810;SDS011;2419;51.276;6.472;2023-04-12T01:17:19;1.97;;;1.43;;
4810;SDS011;2419;51.276;6.472;2023-04-12T01:19:52;2.03;;;1.00;;
4810;SDS011;2419;51.276;6.472;2023-04-12T01:22:35;2.10;;;1.20;;
4810;SDS011;2419;51.276;6.472;2023-04-12T01:25:20;2.77;;;1.40;;
4810;SDS011;2419;51.276;6.472;2023-04-12T01:28:01;3.50;;;1.40;;
4810;SDS011;2419;51.276;6.472;2023-04-12T01:30:30;1.63;;;1.40;;
4810;SDS011;2419;51.276;6.472;2023-04-12T01:33:00;1.57;;;0.90;;
4810;SDS011;2419;51.276;6.472;2023-04-12T01:35:32;1.97;;;1.30;;
4810;SDS011;2419;51.276;6.472;2023-04-12T01:38:01;3.93;;;2.17;;
4810;SDS011;2419;51.276;6.472;2023-04-12T01:40:30;1.47;;;1.30;;
4810;SDS011;2419;51.276;6.472;2023-04-12T01:43:06;1.00;;;0.90;;
4810;SDS011;2419;51.276;6.472;2023-04-12T01:45:35;1.10;;;1.00;;
4810;SDS011;2419;51.276;6.472;2023-04-12T01:48:06;4.47;;;2.50;;
4810;SDS011;2419;51.276;6.472;2023-04-12T01:50:39;0.80;;;0.80;;
4810;SDS011;2419;51.276;6.472;2023-04-12T01:53:11;2.80;;;1.20;;
4810;SDS011;2419;51.276;6.472;2023-04-12T01:55:42;0.83;;;0.83;;
4810;SDS011;2419;51.276;6.472;2023-04-12T01:58:13;4.97;;;1.50;;
4810;SDS011;2419;51.276;6.472;2023-04-12T02:00:43;5.87;;;1.70;;
4810;SDS011;2419;51.276;6.472;2023-04-12T02:03:12;1.73;;;1.10;;
4810;SDS011;2419;51.276;6.472;2023-04-12T02:05:41;5.30;;;1.60;;
4810;SDS011;2419;51.276;6.472;2023-04-12T02:08:09;3.63;;;1.10;;
4810;SDS011;2419;51.276;6.472;2023-04-12T02:10:38;1.53;;;1.07;;
4810;SDS011;2419;51.276;6.472;2023-04-12T02:13:06;1.57;;;1.17;;
4810;SDS011;2419;51.276;6.472;2023-04-12T02:15:35;1.17;;;1.07;;
4810;SDS011;2419;51.276;6.472;2023-04-12T02:18:04;1.50;;;1.40;;
4810;SDS011;2419;51.276;6.472;2023-04-12T02:20:32;5.80;;;1.63;;
4810;SDS011;2419;51.276;6.472;2023-04-12T02:23:01;0.80;;;0.80;;
4810;SDS011;2419;51.276;6.472;2023-04-12T02:25:29;4.73;;;1.37;;
4810;SDS011;2419;51.276;6.472;2023-04-12T02:27:59;2.33;;;1.03;;
4810;SDS011;2419;51.276;6.472;2023-04-12T02:30:27;1.13;;;0.80;;
4810;SDS011;2419;51.276;6.472;2023-04-12T02:32:56;1.40;;;1.30;;
4810;SDS011;2419;51.276;6.472;2023-04-12T02:35:29;5.10;;;1.20;;
4810;SDS011;2419;51.276;6.472;2023-04-12T02:38:04;1.30;;;1.00;;
4810;SDS011;2419;51.276;6.472;2023-04-12T02:40:37;12.53;;;1.20;;
4810;SDS011;2419;51.276;6.472;2023-04-12T02:43:07;0.90;;;0.80;;
4810;SDS011;2419;51.276;6.472;2023-04-12T02:45:39;2.90;;;1.67;;
4810;SDS011;2419;51.276;6.472;2023-04-12T02:48:10;1.17;;;1.03;;
4810;SDS011;2419;51.276;6.472;2023-04-12T02:50:38;5.60;;;1.27;;
4810;SDS011;2419;51.276;6.472;2023-04-12T02:53:14;3.43;;;1.27;;
4810;SDS011;2419;51.276;6.472;2023-04-12T02:55:46;1.20;;;1.10;;
4810;SDS011;2419;51.276;6.472;2023-04-12T02:58:19;2.43;;;1.30;;
4810;SDS011;2419;51.276;6.472;2023-04-12T03:00:49;1.40;;;1.03;;
4810;SDS011;2419;51.276;6.472;2023-04-12T03:03:25;1.00;;;0.90;;
4810;SDS011;2419;51.276;6.472;2023-04-12T03:06:03;1.10;;;0.80;;
4810;SDS011;2419;51.276;6.472;2023-04-12T03:08:32;1.97;;;0.60;;
4810;SDS011;2419;51.276;6.472;2023-04-12T03:11:01;2.60;;;1.10;;
4810;SDS011;2419;51.276;6.472;2023-04-12T03:13:29;0.80;;;0.80;;
4810;SDS011;2419;51.276;6.472;2023-04-12T03:15:57;2.10;;;1.40;;
4810;SDS011;2419;51.276;6.472;2023-04-12T03:18:34;0.97;;;0.90;;
4810;SDS011;2419;51.276;6.472;2023-04-12T03:21:02;1.60;;;1.50;;
4810;SDS011;2419;51.276;6.472;2023-04-12T03:23:30;1.07;;;0.97;;
4810;SDS011;2419;51.276;6.472;2023-04-12T03:26:12;1.10;;;1.00;;
4810;SDS011;2419;51.276;6.472;2023-04-12T03:28:55;0.80;;;0.70;;
4810;SDS011;2419;51.276;6.472;2023-04-12T03:31:30;0.70;;;0.70;;
4810;SDS011;2419;51.276;6.472;2023-04-12T03:34:04;2.80;;;0.90;;
4810;SDS011;2419;51.276;6.472;2023-04-12T03:36:36;2.10;;;1.33;;
4810;SDS011;2419;51.276;6.472;2023-04-12T03:39:12;0.87;;;0.80;;
4810;SDS011;2419;51.276;6.472;2023-04-12T03:41:41;1.37;;;0.87;;
4810;SDS011;2419;51.276;6.472;2023-04-12T03:44:10;0.60;;;0.60;;
4810;SDS011;2419;51.276;6.472;2023-04-12T03:46:38;1.37;;;1.27;;
4810;SDS011;2419;51.276;6.472;2023-04-12T03:49:10;6.47;;;0.90;;
4810;SDS011;2419;51.276;6.472;2023-04-12T03:51:39;0.93;;;0.83;;
4810;SDS011;2419;51.276;6.472;2023-04-12T03:54:08;0.97;;;0.90;;
4810;SDS011;2419;51.276;6.472;2023-04-12T03:56:47;0.80;;;0.80;;
4810;SDS011;2419;51.276;6.472;2023-04-12T03:59:23;3.37;;;1.20;;
4810;SDS011;2419;51.276;6.472;2023-04-12T04:01:51;3.10;;;1.13;;
4810;SDS011;2419;51.276;6.472;2023-04-12T04:04:22;2.50;;;0.90;;
4810;SDS011;2419;51.276;6.472;2023-04-12T04:06:54;1.97;;;0.90;;
4810;SDS011;2419;51.276;6.472;2023-04-12T04:09:24;1.10;;;1.00;;
4810;SDS011;2419;51.276;6.472;2023-04-12T04:11:52;4.37;;;1.40;;
4810;SDS011;2419;51.276;6.472;2023-04-12T04:14:21;1.00;;;0.93;;
4810;SDS011;2419;51.276;6.472;2023-04-12T04:16:53;6.20;;;1.13;;
4810;SDS011;2419;51.276;6.472;2023-04-12T04:19:26;1.00;;;1.00;;
4810;SDS011;2419;51.276;6.472;2023-04-12T04:21:54;1.80;;;1.50;;
4810;SDS011;2419;51.276;6.472;2023-04-12T04:24:22;1.07;;;0.97;;
4810;SDS011;2419;51.276;6.472;2023-04-12T04:26:53;1.43;;;1.20;;
4810;SDS011;2419;51.276;6.472;2023-04-12T04:29:25;1.00;;;0.90;;
4810;SDS011;2419;51.276;6.472;2023-04-12T04:31:55;2.67;;;1.30;;
4810;SDS011;2419;51.276;6.472;2023-04-12T04:34:26;1.07;;;0.97;;
4810;SDS011;2419;51.276;6.472;2023-04-12T04:37:04;8.53;;;1.30;;
4810;SDS011;2419;51.276;6.472;2023-04-12T04:39:32;1.27;;;1.17;;
4810;SDS011;2419;51.276;6.472;2023-04-12T04:42:02;1.33;;;1.23;;
4810;SDS011;2419;51.276;6.472;2023-04-12T04:44:37;1.20;;;1.10;;
4810;SDS011;2419;51.276;6.472;2023-04-12T04:47:08;1.10;;;1.00;;
4810;SDS011;2419;51.276;6.472;2023-04-12T04:49:37;3.07;;;1.33;;
4810;SDS011;2419;51.276;6.472;2023-04-12T04:52:19;1.90;;;1.80;;
4810;SDS011;2419;51.276;6.472;2023-04-12T04:54:48;1.90;;;1.07;;
4810;SDS011;2419;51.276;6.472;2023-04-12T04:57:17;1.30;;;1.20;;
4810;SDS011;2419;51.276;6.472;2023-04-12T04:59:46;1.17;;;1.07;;
4810;SDS011;2419;51.276;6.472;2023-04-12T05:02:16;3.63;;;2.40;;
4810;SDS011;2419;51.276;6.472;2023-04-12T05:04:45;3.73;;;1.87;;
4810;SDS011;2419;51.276;6.472;2023-04-12T05:07:17;1.70;;;1.40;;
4810;SDS011;2419;51.276;6.472;2023-04-12T05:09:46;2.00;;;1.03;;
4810;SDS011;2419;51.276;6.472;2023-04-12T05:12:17;8.20;;;1.83;;
4810;SDS011;2419;51.276;6.472;2023-04-12T05:14:49;1.40;;;1.30;;
4810;SDS011;2419;51.276;6.472;2023-04-12T05:17:17;4.60;;;1.50;;
4810;SDS011;2419;51.276;6.472;2023-04-12T05:19:47;6.10;;;1.90;;
4810;SDS011;2419;51.276;6.472;2023-04-12T05:22:16;1.40;;;1.30;;
4810;SDS011;2419;51.276;6.472;2023-04-12T05:24:45;5.10;;;1.50;;
4810;SDS011;2419;51.276;6.472;2023-04-12T05:27:14;2.63;;;1.50;;
4810;SDS011;2419;51.276;6.472;2023-04-12T05:29:44;1.50;;;1.40;;
4810;SDS011;2419;51.276;6.472;2023-04-12T05:32:14;1.70;;;1.60;;
4810;SDS011;2419;51.276;6.472;2023-04-12T05:34:42;4.03;;;1.70;;
4810;SDS011;2419;51.276;6.472;2023-04-12T05:37:12;1.50;;;1.40;;
4810;SDS011;2419;51.276;6.472;2023-04-12T05:39:41;3.13;;;1.47;;
4810;SDS011;2419;51.276;6.472;2023-04-12T05:42:10;1.70;;;1.60;;
4810;SDS011;2419;51.276;6.472;2023-04-12T05:44:39;2.30;;;2.10;;
4810;SDS011;2419;51.276;6.472;2023-04-12T05:47:12;1.40;;;1.30;;
4810;SDS011;2419;51.276;6.472;2023-04-12T05:49:40;2.60;;;1.20;;
4810;SDS011;2419;51.276;6.472;2023-04-12T05:52:11;1.47;;;1.37;;
4810;SDS011;2419;51.276;6.472;2023-04-12T05:54:39;2.00;;;1.50;;
4810;SDS011;2419;51.276;6.472;2023-04-12T05:57:12;1.20;;;1.10;;
4810;SDS011;2419;51.276;6.472;2023-04-12T05:59:46;1.67;;;0.90;;
4810;SDS011;2419;51.276;6.472;2023-04-12T06:02:14;1.33;;;1.20;;
4810;SDS011;2419;51.276;6.472;2023-04-12T06:04:42;4.63;;;1.60;;
4810;SDS011;2419;51.276;6.472;2023-04-12T06:07:18;4.30;;;1.60;;
4810;SDS011;2419;51.276;6.472;2023-04-12T06:09:47;2.50;;;2.07;;
4810;SDS011;2419;51.276;6.472;2023-04-12T06:12:16;3.20;;;1.97;;
4810;SDS011;2419;51.276;6.472;2023-04-12T06:14:45;1.40;;;1.30;;
4810;SDS011;2419;51.276;6.472;2023-04-12T06:17:13;2.67;;;1.80;;
4810;SDS011;2419;51.276;6.472;2023-04-12T06:19:42;5.50;;;3.13;;
4810;SDS011;2419;51.276;6.472;2023-04-12T06:22:10;8.23;;;2.13;;
4810;SDS011;2419;51.276;6.472;2023-04-12T06:24:40;1.73;;;1.60;;
4810;SDS011;2419;51.276;6.472;2023-04-12T06:27:10;2.23;;;1.07;;
4810;SDS011;2419;51.276;6.472;2023-04-12T06:29:38;2.23;;;1.40;;
4810;SDS011;2419;51.276;6.472;2023-04-12T06:32:06;15.70;;;2.13;;
4810;SDS011;2419;51.276;6.472;2023-04-12T06:34:34;3.93;;;1.90;;
4810;SDS011;2419;51.276;6.472;2023-04-12T06:37:08;4.30;;;1.10;;
4810;SDS011;2419;51.276;6.472;2023-04-12T06:39:36;1.47;;;1.37;;
4810;SDS011;2419;51.276;6.472;2023-04-12T06:42:05;1.53;;;1.33;;
4810;SDS011;2419;51.276;6.472;2023-04-12T06:44:37;2.53;;;2.33;;
4810;SDS011;2419;51.276;6.472;2023-04-12T06:47:05;2.37;;;2.00;;
4810;SDS011;2419;51.276;6.472;2023-04-12T06:49:33;7.33;;;3.13;;
4810;SDS011;2419;51.276;6.472;2023-04-12T06:52:01;1.80;;;1.70;;
4810;SDS011;2419;51.276;6.472;2023-04-12T06:54:29;2.30;;;2.10;;
4810;SDS011;2419;51.276;6.472;2023-04-12T06:56:57;2.27;;;1.93;;
4810;SDS011;2419;51.276;6.472;2023-04-12T06:59:28;2.57;;;2.20;;
4810;SDS011;2419;51.276;6.472;2023-04-12T07:01:56;2.33;;;1.47;;
4810;SDS011;2419;51.276;6.472;2023-04-12T07:04:24;1.73;;;1.63;;
4810;SDS011;2419;51.276;6.472;2023-04-12T07:06:52;3.13;;;1.90;;
4810;SDS011;2419;51.276;6.472;2023-04-12T07:09:20;2.97;;;2.60;;
4810;SDS011;2419;51.276;6.472;2023-04-12T07:11:48;2.67;;;2.00;;
4810;SDS011;2419;51.276;6.472;2023-04-12T07:14:16;2.10;;;1.93;;
4810;SDS011;2419;51.276;6.472;2023-04-12T07:16:45;2.27;;;2.03;;
4810;SDS011;2419;51.276;6.472;2023-04-12T07:19:14;5.00;;;1.90;;
4810;SDS011;2419;51.276;6.472;2023-04-12T07:21:42;2.77;;;2.47;;
4810;SDS011;2419;51.276;6.472;2023-04-12T07:24:10;5.13;;;2.10;;
4810;SDS011;2419;51.276;6.472;2023-04-12T07:26:38;1.83;;;1.73;;
4810;SDS011;2419;51.276;6.472;2023-04-12T07:29:06;2.80;;;2.43;;
4810;SDS011;2419;51.276;6.472;2023-04-12T07:31:34;2.97;;;2.10;;
4810;SDS011;2419;51.276;6.472;2023-04-12T07:34:03;3.13;;;2.47;;
4810;SDS011;2419;51.276;6.472;2023-04-12T07:36:31;4.33;;;2.13;;
4810;SDS011;2419;51.276;6.472;2023-04-12T07:38:59;3.00;;;2.63;;
4810;SDS011;2419;51.276;6.472;2023-04-12T07:41:27;3.80;;;2.63;;
4810;SDS011;2419;51.276;6.472;2023-04-12T07:43:55;3.83;;;2.70;;
4810;SDS011;2419;51.276;6.472;2023-04-12T07:46:23;4.23;;;2.93;;
4810;SDS011;2419;51.276;6.472;2023-04-12T07:48:52;6.00;;;2.50;;
4810;SDS011;2419;51.276;6.472;2023-04-12T07:51:21;3.60;;;2.70;;
4810;SDS011;2419;51.276;6.472;2023-04-12T07:53:49;5.10;;;2.83;;
4810;SDS011;2419;51.276;6.472;2023-04-12T07:56:17;2.40;;;2.17;;
4810;SDS011;2419;51.276;6.472;2023-04-12T07:58:45;5.03;;;3.07;;
4810;SDS011;2419;51.276;6.472;2023-04-12T08:01:13;6.33;;;3.63;;
4810;SDS011;2419;51.276;6.472;2023-04-12T08:03:42;4.50;;;2.43;;
4810;SDS011;2419;51.276;6.472;2023-04-12T08:06:10;3.50;;;2.73;;
4810;SDS011;2419;51.276;6.472;2023-04-12T08:08:40;6.07;;;3.40;;
4810;SDS011;2419;51.276;6.472;2023-04-12T08:11:08;2.67;;;2.33;;
4810;SDS011;2419;51.276;6.472;2023-04-12T08:13:36;6.60;;;2.97;;
4810;SDS011;2419;51.276;6.472;2023-04-12T08:16:04;2.27;;;2.00;;
4810;SDS011;2419;51.276;6.472;2023-04-12T08:18:33;3.30;;;2.70;;
4810;SDS011;2419;51.276;6.472;2023-04-12T08:21:01;4.83;;;3.13;;
4810;SDS011;2419;51.276;6.472;2023-04-12T08:23:30;4.60;;;3.50;;
4810;SDS011;2419;51.276;6.472;2023-04-12T08:26:01;4.60;;;2.87;;
4810;SDS011;2419;51.276;6.472;2023-04-12T08:28:29;3.80;;;2.93;;
4810;SDS011;2419;51.276;6.472;2023-04-12T08:30:58;3.97;;;2.90;;
4810;SDS011;2419;51.276;6.472;2023-04-12T08:33:27;7.70;;;2.70;;
4810;SDS011;2419;51.276;6.472;2023-04-12T08:35:55;5.83;;;3.70;;
4810;SDS011;2419;51.276;6.472;2023-04-12T08:38:23;3.60;;;2.57;;
4810;SDS011;2419;51.276;6.472;2023-04-12T08:41:11;5.07;;;3.30;;
4810;SDS011;2419;51.276;6.472;2023-04-12T08:43:41;4.30;;;3.03;;
4810;SDS011;2419;51.276;6.472;2023-04-12T08:46:12;3.40;;;2.80;;
4810;SDS011;2419;51.276;6.472;2023-04-12T08:48:42;4.13;;;3.20;;
4810;SDS011;2419;51.276;6.472;2023-04-12T08:51:14;6.57;;;4.13;;
4810;SDS011;2419;51.276;6.472;2023-04-12T08:53:44;6.70;;;2.60;;
4810;SDS011;2419;51.276;6.472;2023-04-12T08:56:14;2.77;;;2.20;;
4810;SDS011;2419;51.276;6.472;2023-04-12T08:58:44;2.67;;;2.47;;
4810;SDS011;2419;51.276;6.472;2023-04-12T09:01:14;2.20;;;1.90;;
4810;SDS011;2419;51.276;6.472;2023-04-12T09:03:44;1.60;;;1.40;;
4810;SDS011;2419;51.276;6.472;2023-04-12T09:06:12;2.70;;;2.00;;
4810;SDS011;2419;51.276;6.472;2023-04-12T09:08:50;3.23;;;2.73;;
4810;SDS011;2419;51.276;6.472;2023-04-12T09:11:21;2.83;;;2.30;;
4810;SDS011;2419;51.276;6.472;2023-04-12T09:13:51;3.33;;;3.03;;
4810;SDS011;2419;51.276;6.472;2023-04-12T09:16:38;4.43;;;3.17;;
4810;SDS011;2419;51.276;6.472;2023-04-12T09:19:07;2.50;;;2.30;;
4810;SDS011;2419;51.276;6.472;2023-04-12T09:21:35;2.60;;;2.30;;
4810;SDS011;2419;51.276;6.472;2023-04-12T09:24:17;4.03;;;1.93;;
4810;SDS011;2419;51.276;6.472;2023-04-12T09:26:52;2.00;;;1.60;;
4810;SDS011;2419;51.276;6.472;2023-04-12T09:29:29;2.00;;;1.70;;
4810;SDS011;2419;51.276;6.472;2023-04-12T09:31:58;1.93;;;1.53;;
4810;SDS011;2419;51.276;6.472;2023-04-12T09:34:28;1.20;;;1.10;;
4810;SDS011;2419;51.276;6.472;2023-04-12T09:36:56;4.80;;;1.50;;
4810;SDS011;2419;51.276;6.472;2023-04-12T09:39:31;1.77;;;1.40;;
4810;SDS011;2419;51.276;6.472;2023-04-12T09:42:04;1.97;;;1.30;;
4810;SDS011;2419;51.276;6.472;2023-04-12T09:44:53;1.40;;;1.30;;
4810;SDS011;2419;51.276;6.472;2023-04-12T09:47:21;1.37;;;1.27;;
4810;SDS011;2419;51.276;6.472;2023-04-12T09:49:50;2.00;;;1.57;;
4810;SDS011;2419;51.276;6.472;2023-04-12T09:52:18;1.60;;;1.50;;
4810;SDS011;2419;51.276;6.472;2023-04-12T09:54:46;1.63;;;1.50;;
4810;SDS011;2419;51.276;6.472;2023-04-12T09:57:17;1.50;;;1.40;;
4810;SDS011;2419;51.276;6.472;2023-04-12T09:59:47;1.67;;;1.57;;
4810;SDS011;2419;51.276;6.472;2023-04-12T10:02:18;2.20;;;1.23;;
4810;SDS011;2419;51.276;6.472;2023-04-12T10:04:49;1.83;;;1.50;;
4810;SDS011;2419;51.276;6.472;2023-04-12T10:07:19;3.17;;;1.47;;
4810;SDS011;2419;51.276;6.472;2023-04-12T10:09:47;1.90;;;1.40;;
4810;SDS011;2419;51.276;6.472;2023-04-12T10:12:17;1.47;;;1.37;;
4810;SDS011;2419;51.276;6.472;2023-04-12T10:14:45;4.07;;;1.20;;
4810;SDS011;2419;51.276;6.472;2023-04-12T10:17:14;2.93;;;1.20;;
4810;SDS011;2419;51.276;6.472;2023-04-12T10:19:45;4.50;;;1.40;;
4810;SDS011;2419;51.276;6.472;2023-04-12T10:22:15;3.13;;;1.43;;
4810;SDS011;2419;51.276;6.472;2023-04-12T10:24:44;4.07;;;1.50;;
4810;SDS011;2419;51.276;6.472;2023-04-12T10:27:13;3.80;;;1.87;;
4810;SDS011;2419;51.276;6.472;2023-04-12T10:29:53;5.10;;;1.50;;
4810;SDS011;2419;51.276;6.472;2023-04-12T10:32:41;4.77;;;1.33;;
4810;SDS011;2419;51.276;6.472;2023-04-12T10:35:09;4.37;;;1.60;;
4810;SDS011;2419;51.276;6.472;2023-04-12T10:37:56;7.03;;;2.00;;
4810;SDS011;2419;51.276;6.472;2023-04-12T10:40:25;2.33;;;1.40;;
4810;SDS011;2419;51.276;6.472;2023-04-12T10:45:54;1.30;;;1.20;;
4810;SDS011;2419;51.276;6.472;2023-04-12T10:48:30;4.27;;;1.77;;
4810;SDS011;2419;51.276;6.472;2023-04-12T10:53:48;1.40;;;1.30;;
4810;SDS011;2419;51.276;6.472;2023-04-12T10:59:21;2.57;;;1.50;;
4810;SDS011;2419;51.276;6.472;2023-04-12T11:02:07;2.47;;;2.00;;
4810;SDS011;2419;51.276;6.472;2023-04-12T11:05:01;4.30;;;1.23;;
4810;SDS011;2419;51.276;6.472;2023-04-12T11:07:47;4.87;;;1.33;;
4810;SDS011;2419;51.276;6.472;2023-04-12T11:10:53;1.40;;;1.30;;
4810;SDS011;2419;51.276;6.472;2023-04-12T11:13:33;1.33;;;1.03;;
4810;SDS011;2419;51.276;6.472;2023-04-12T11:16:04;3.90;;;1.40;;
4810;SDS011;2419;51.276;6.472;2023-04-12T11:18:33;2.50;;;1.07;;
4810;SDS011;2419;51.276;6.472;2023-04-12T11:21:01;2.90;;;1.30;;
4810;SDS011;2419;51.276;6.472;2023-04-12T11:23:30;6.63;;;1.37;;
4810;SDS011;2419;51.276;6.472;2023-04-12T11:25:59;1.00;;;0.90;;
4810;SDS011;2419;51.276;6.472;2023-04-12T11:28:29;2.73;;;1.40;;
4810;SDS011;2419;51.276;6.472;2023-04-12T11:31:01;2.97;;;1.20;;
4810;SDS011;2419;51.276;6.472;2023-04-12T11:33:32;7.30;;;1.97;;
4810;SDS011;2419;51.276;6.472;2023-04-12T11:36:04;2.60;;;1.20;;
4810;SDS011;2419;51.276;6.472;2023-04-12T11:38:33;5.07;;;1.70;;
4810;SDS011;2419;51.276;6.472;2023-04-12T11:41:04;2.73;;;1.53;;
4810;SDS011;2419;51.276;6.472;2023-04-12T11:43:34;7.20;;;1.87;;
4810;SDS011;2419;51.276;6.472;2023-04-12T11:46:04;2.23;;;1.40;;
4810;SDS011;2419;51.276;6.472;2023-04-12T11:48:34;7.80;;;1.73;;
4810;SDS011;2419;51.276;6.472;2023-04-12T11:51:17;7.10;;;1.43;;
4810;SDS011;2419;51.276;6.472;2023-04-12T11:53:46;4.33;;;1.60;;
4810;SDS011;2419;51.276;6.472;2023-04-12T11:56:19;3.60;;;1.40;;
4810;SDS011;2419;51.276;6.472;2023-04-12T11:58:47;1.27;;;1.13;;
4810;SDS011;2419;51.276;6.472;2023-04-12T12:01:19;1.87;;;1.30;;
4810;SDS011;2419;51.276;6.472;2023-04-12T12:03:49;3.13;;;1.73;;
4810;SDS011;2419;51.276;6.472;2023-04-12T12:06:23;15.57;;;6.23;;
4810;SDS011;2419;51.276;6.472;2023-04-12T12:08:53;3.30;;;1.80;;
4810;SDS011;2419;51.276;6.472;2023-04-12T12:11:22;5.67;;;1.80;;
4810;SDS011;2419;51.276;6.472;2023-04-12T12:13:52;1.63;;;1.37;;
4810;SDS011;2419;51.276;6.472;2023-04-12T12:16:24;1.77;;;1.63;;
4810;SDS011;2419;51.276;6.472;2023-04-12T12:18:55;1.77;;;1.60;;
4810;SDS011;2419;51.276;6.472;2023-04-12T12:21:24;5.53;;;2.23;;
4810;SDS011;2419;51.276;6.472;2023-04-12T12:23:54;4.87;;;2.20;;
4810;SDS011;2419;51.276;6.472;2023-04-12T12:26:24;7.33;;;2.20;;
4810;SDS011;2419;51.276;6.472;2023-04-12T12:28:54;7.40;;;1.90;;
4810;SDS011;2419;51.276;6.472;2023-04-12T12:31:23;4.30;;;2.43;;
4810;SDS011;2419;51.276;6.472;2023-04-12T12:33:54;10.30;;;2.30;;
4810;SDS011;2419;51.276;6.472;2023-04-12T12:36:28;9.10;;;2.20;;
4810;SDS011;2419;51.276;6.472;2023-04-12T12:39:02;6.70;;;2.23;;
4810;SDS011;2419;51.276;6.472;2023-04-12T12:41:32;19.47;;;3.07;;
4810;SDS011;2419;51.276;6.472;2023-04-12T12:44:01;6.63;;;2.00;;
4810;SDS011;2419;51.276;6.472;2023-04-12T12:46:29;3.87;;;2.00;;
4810;SDS011;2419;51.276;6.472;2023-04-12T12:49:18;4.73;;;1.60;;
4810;SDS011;2419;51.276;6.472;2023-04-12T12:51:46;4.07;;;2.30;;
4810;SDS011;2419;51.276;6.472;2023-04-12T12:54:15;8.03;;;2.00;;
4810;SDS011;2419;51.276;6.472;2023-04-12T12:57:03;8.10;;;1.63;;
4810;SDS011;2419;51.276;6.472;2023-04-12T12:59:31;9.77;;;1.50;;
4810;SDS011;2419;51.276;6.472;2023-04-12T13:01:59;5.17;;;1.63;;
4810;SDS011;2419;51.276;6.472;2023-04-12T13:04:29;6.10;;;1.73;;
4810;SDS011;2419;51.276;6.472;2023-04-12T13:06:57;3.80;;;1.43;;
4810;SDS011;2419;51.276;6.472;2023-04-12T13:09:25;2.63;;;1.50;;
4810;SDS011;2419;51.276;6.472;2023-04-12T13:27:13;4.10;;;1.20;;
4810;SDS011;2419;51.276;6.472;2023-04-12T13:29:42;3.17;;;1.27;;
4810;SDS011;2419;51.276;6.472;2023-04-12T13:32:10;4.37;;;1.30;;
4810;SDS011;2419;51.276;6.472;2023-04-12T13:34:39;6.80;;;1.40;;
4810;SDS011;2419;51.276;6.472;2023-04-12T13:37:07;5.63;;;1.33;;
4810;SDS011;2419;51.276;6.472;2023-04-12T13:39:35;12.23;;;1.63;;
4810;SDS011;2419;51.276;6.472;2023-04-12T13:42:05;2.13;;;1.30;;
4810;SDS011;2419;51.276;6.472;2023-04-12T13:44:35;3.17;;;1.37;;
4810;SDS011;2419;51.276;6.472;2023-04-12T13:47:03;4.10;;;1.00;;
4810;SDS011;2419;51.276;6.472;2023-04-12T13:49:31;5.40;;;1.53;;
4810;SDS011;2419;51.276;6.472;2023-04-12T13:52:00;2.20;;;1.10;;
4810;SDS011;2419;51.276;6.472;2023-04-12T13:54:28;1.93;;;1.33;;
4810;SDS011;2419;51.276;6.472;2023-04-12T13:56:56;2.20;;;1.20;;
4810;SDS011;2419;51.276;6.472;2023-04-12T13:59:25;3.67;;;1.60;;
4810;SDS011;2419;51.276;6.472;2023-04-12T14:01:54;1.33;;;1.20;;
4810;SDS011;2419;51.276;6.472;2023-04-12T14:04:22;2.33;;;1.10;;
4810;SDS011;2419;51.276;6.472;2023-04-12T14:06:53;4.73;;;1.40;;
4810;SDS011;2419;51.276;6.472;2023-04-12T14:09:22;2.20;;;1.40;;
4810;SDS011;2419;51.276;6.472;2023-04-12T14:11:51;5.93;;;2.10;;
4810;SDS011;2419;51.276;6.472;2023-04-12T14:14:21;3.17;;;1.30;;
4810;SDS011;2419;51.276;6.472;2023-04-12T14:16:49;1.70;;;1.50;;
4810;SDS011;2419;51.276;6.472;2023-04-12T14:19:20;3.17;;;1.67;;
4810;SDS011;2419;51.276;6.472;2023-04-12T14:21:48;2.53;;;1.67;;
4810;SDS011;2419;51.276;6.472;2023-04-12T14:24:17;6.47;;;2.07;;
4810;SDS011;2419;51.276;6.472;2023-04-12T14:26:46;2.90;;;1.80;;
4810;SDS011;2419;51.276;6.472;2023-04-12T14:29:15;5.03;;;2.20;;
4810;SDS011;2419;51.276;6.472;2023-04-12T14:31:43;2.20;;;1.30;;
4810;SDS011;2419;51.276;6.472;2023-04-12T14:34:11;4.40;;;1.13;;
4810;SDS011;2419;51.276;6.472;2023-04-12T14:36:41;1.43;;;1.23;;
4810;SDS011;2419;51.276;6.472;2023-04-12T14:39:09;7.37;;;2.20;;
4810;SDS011;2419;51.276;6.472;2023-04-12T14:41:40;2.20;;;1.40;;
4810;SDS011;2419;51.276;6.472;2023-04-12T14:44:08;2.30;;;1.20;;
4810;SDS011;2419;51.276;6.472;2023-04-12T14:46:36;0.87;;;0.87;;
4810;SDS011;2419;51.276;6.472;2023-04-12T14:49:05;4.33;;;1.00;;
4810;SDS011;2419;51.276;6.472;2023-04-12T14:55:01;1.10;;;0.80;;
4810;SDS011;2419;51.276;6.472;2023-04-12T14:57:29;7.20;;;0.87;;
4810;SDS011;2419;51.276;6.472;2023-04-12T14:59:58;0.90;;;0.90;;
4810;SDS011;2419;51.276;6.472;2023-04-12T15:02:26;0.70;;;0.70;;
4810;SDS011;2419;51.276;6.472;2023-04-12T15:04:55;1.63;;;1.10;;
4810;SDS011;2419;51.276;6.472;2023-04-12T15:07:24;1.20;;;1.07;;
4810;SDS011;2419;51.276;6.472;2023-04-12T15:09:52;1.00;;;0.90;;
4810;SDS011;2419;51.276;6.472;2023-04-12T15:12:24;0.80;;;0.80;;
4810;SDS011;2419;51.276;6.472;2023-04-12T15:14:53;1.03;;;1.03;;
4810;SDS011;2419;51.276;6.472;2023-04-12T15:17:22;1.10;;;1.00;;
4810;SDS011;2419;51.276;6.472;2023-04-12T15:19:50;1.10;;;0.90;;
4810;SDS011;2419;51.276;6.472;2023-04-12T15:22:18;1.77;;;0.93;;
4810;SDS011;2419;51.276;6.472;2023-04-12T15:24:47;0.90;;;0.90;;
4810;SDS011;2419;51.276;6.472;2023-04-12T15:27:16;0.90;;;0.80;;
4810;SDS011;2419;51.276;6.472;2023-04-12T15:29:45;1.20;;;1.00;;
4810;SDS011;2419;51.276;6.472;2023-04-12T15:32:13;0.80;;;0.80;;
4810;SDS011;2419;51.276;6.472;2023-04-12T15:34:42;1.67;;;0.83;;
4810;SDS011;2419;51.276;6.472;2023-04-12T15:37:10;1.43;;;1.10;;
4810;SDS011;2419;51.276;6.472;2023-04-12T15:39:40;1.93;;;1.13;;
4810;SDS011;2419;51.276;6.472;2023-04-12T15:42:08;1.63;;;0.70;;
4810;SDS011;2419;51.276;6.472;2023-04-12T15:44:36;4.80;;;1.10;;
4810;SDS011;2419;51.276;6.472;2023-04-12T15:47:05;0.90;;;0.80;;
4810;SDS011;2419;51.276;6.472;2023-04-12T15:49:37;2.20;;;0.83;;
4810;SDS011;2419;51.276;6.472;2023-04-12T15:52:05;2.57;;;1.50;;
4810;SDS011;2419;51.276;6.472;2023-04-12T15:54:36;4.30;;;1.10;;
4810;SDS011;2419;51.276;6.472;2023-04-12T15:57:09;2.17;;;1.10;;
4810;SDS011;2419;51.276;6.472;2023-04-12T15:59:37;1.77;;;1.10;;
4810;SDS011;2419;51.276;6.472;2023-04-12T16:02:08;1.20;;;1.10;;
4810;SDS011;2419;51.276;6.472;2023-04-12T16:04:36;2.07;;;1.10;;